Time;durP1;ratioP1;P1;durP2;ratioP2;P2;SDS_P1;SDS_P2;PMS_P1;PMS_P2;Temp;Humidity;BMP_temperature;BMP_pressure;BME280_temperature;BME280_humidity;BME280_pressure;Samples;Min_cycle;Max_cycle;Signal;HPM_P1;HPM_P2
2023/08/29 00:01:57;;;;;;;15.25;7.05;;;;;;;12.71;100.00;101176.53;5091247;28;20032;-73
2023/08/29 00:04:22;;;;;;;11.23;5.80;;;;;;;12.78;100.00;101185.38;5074186;28;20115;-73
2023/08/29 00:06:48;;;;;;;9.38;5.25;;;;;;;12.78;100.00;101182.72;5092524;28;20024;-73
2023/08/29 00:09:13;;;;;;;10.23;6.15;;;;;;;12.77;100.00;101178.41;5092268;28;20032;-73
2023/08/29 00:11:39;;;;;;;10.25;5.63;;;;;;;12.79;100.00;101173.66;5092499;28;20472;-73
2023/08/29 00:14:04;;;;;;;10.90;6.55;;;;;;;12.82;100.00;101185.81;5092297;28;20390;-73
2023/08/29 00:16:29;;;;;;;10.43;6.78;;;;;;;12.86;100.00;101163.81;5092319;28;20042;-73
2023/08/29 00:18:55;;;;;;;9.43;5.97;;;;;;;12.91;100.00;101168.53;5090866;28;20042;-73
2023/08/29 00:21:20;;;;;;;9.73;6.68;;;;;;;12.93;100.00;101164.63;5091090;28;20071;-73
2023/08/29 00:23:48;;;;;;;9.18;5.43;;;;;;;12.87;100.00;101165.44;5092187;28;20475;-73
2023/08/29 00:26:14;;;;;;;9.70;6.10;;;;;;;12.78;100.00;101158.63;5090675;28;20039;-73
2023/08/29 00:28:40;;;;;;;8.32;4.95;;;;;;;12.86;100.00;101150.44;5092068;28;20032;-73
2023/08/29 00:31:06;;;;;;;9.68;5.53;;;;;;;12.88;100.00;101151.03;5091958;28;20042;-73
2023/08/29 00:33:31;;;;;;;10.10;5.80;;;;;;;12.75;100.00;101147.50;5092017;28;20036;-74
2023/08/29 00:35:56;;;;;;;11.77;5.93;;;;;;;12.83;100.00;101158.00;5091812;28;20023;-73
2023/08/29 00:38:22;;;;;;;8.60;5.45;;;;;;;12.75;100.00;101163.56;5091941;28;20039;-73
2023/08/29 00:40:47;;;;;;;10.18;5.65;;;;;;;12.71;100.00;101160.47;5091836;28;20025;-73
2023/08/29 00:43:13;;;;;;;14.98;6.40;;;;;;;12.70;100.00;101159.63;5090355;28;20064;-73
2023/08/29 00:45:39;;;;;;;12.90;6.07;;;;;;;12.78;100.00;101161.31;5091831;28;20039;-73
2023/08/29 00:48:06;;;;;;;10.70;5.72;;;;;;;12.77;100.00;101153.50;5091464;28;20032;-74
2023/08/29 00:50:33;;;;;;;10.35;6.07;;;;;;;12.79;100.00;101154.94;5091657;28;20026;-73
2023/08/29 00:53:03;;;;;;;13.27;6.38;;;;;;;12.79;100.00;101148.75;5091733;28;20081;-73
2023/08/29 00:55:28;;;;;;;11.90;6.38;;;;;;;12.79;100.00;101148.75;5091858;28;20031;-73
2023/08/29 00:57:59;;;;;;;10.80;6.93;;;;;;;12.73;100.00;101150.38;5091558;28;20036;-73
2023/08/29 01:00:28;;;;;;;11.20;6.70;;;;;;;12.71;100.00;101145.25;5091936;28;20154;-73
2023/08/29 01:02:55;;;;;;;11.52;7.20;;;;;;;12.63;100.00;101144.63;5090283;28;20272;-73
2023/08/29 01:05:20;;;;;;;11.93;6.45;;;;;;;12.65;100.00;101148.75;5091511;28;20073;-73
2023/08/29 01:07:48;;;;;;;10.18;5.93;;;;;;;12.68;100.00;101150.16;5091452;28;20031;-73
2023/08/29 01:10:14;;;;;;;11.13;5.95;;;;;;;12.71;100.00;101145.25;5090391;28;20048;-73
2023/08/29 01:13:17;;;;;;;11.45;6.25;;;;;;;12.72;100.00;101159.44;5091121;28;20099;-73
2023/08/29 01:15:48;;;;;;;12.60;7.03;;;;;;;12.74;100.00;101151.22;5070441;28;20078;-74
2023/08/29 01:18:16;;;;;;;9.52;6.55;;;;;;;12.76;100.00;101151.81;5090741;28;20024;-73
2023/08/29 01:20:42;;;;;;;10.88;6.90;;;;;;;12.71;100.00;101152.47;5090852;28;20068;-73
2023/08/29 01:23:43;;;;;;;9.23;6.00;;;;;;;12.73;100.00;101153.06;5090923;28;20532;-73
2023/08/29 01:26:16;;;;;;;12.88;5.88;;;;;;;12.65;100.00;101151.41;5067615;28;20041;-73
2023/08/29 01:28:46;;;;;;;9.52;5.25;;;;;;;12.56;100.00;101141.09;5090512;28;20066;-73
2023/08/29 01:31:12;;;;;;;10.88;5.78;;;;;;;12.59;100.00;101154.06;5090684;28;20073;-73
2023/08/29 01:33:38;;;;;;;11.80;6.95;;;;;;;12.52;100.00;101147.88;5091607;28;20032;-73
2023/08/29 01:36:04;;;;;;;11.02;5.80;;;;;;;12.46;100.00;101153.00;5090774;28;20028;-73
2023/08/29 01:38:30;;;;;;;10.05;5.88;;;;;;;12.46;100.00;101160.22;5089628;28;20032;-73
2023/08/29 01:40:55;;;;;;;7.88;5.32;;;;;;;12.48;100.00;101150.94;5090526;28;20020;-74
2023/08/29 01:43:21;;;;;;;10.15;6.30;;;;;;;12.48;100.00;101153.63;5090839;28;20036;-73
2023/08/29 01:45:46;;;;;;;13.48;6.93;;;;;;;12.54;100.00;101154.66;5089213;28;20035;-73
2023/08/29 01:48:11;;;;;;;9.77;6.13;;;;;;;12.49;100.00;101149.09;5090658;28;20093;-73
2023/08/29 01:50:38;;;;;;;9.02;5.43;;;;;;;12.53;100.00;101153.03;5090327;28;20031;-73
2023/08/29 01:53:04;;;;;;;9.70;6.32;;;;;;;12.49;100.00;101151.78;5089124;28;20028;-73
2023/08/29 01:55:30;;;;;;;9.48;6.10;;;;;;;12.53;100.00;101153.03;5090455;28;20024;-73
2023/08/29 01:57:57;;;;;;;11.60;6.03;;;;;;;12.55;100.00;101163.50;5090180;28;20475;-73
2023/08/29 02:00:24;;;;;;;7.82;5.47;;;;;;;12.52;100.00;101159.38;5090309;28;20387;-73
2023/08/29 02:02:49;;;;;;;11.27;5.50;;;;;;;12.41;100.00;101163.47;5090168;28;20028;-73
2023/08/29 02:05:14;;;;;;;8.05;5.40;;;;;;;12.36;100.00;101170.47;5090345;28;20043;-73
2023/08/29 02:07:40;;;;;;;8.63;5.85;;;;;;;12.34;100.00;101176.03;5089046;28;20546;-74
2023/08/29 02:10:06;;;;;;;13.57;6.68;;;;;;;12.36;100.00;101168.59;5088709;28;20042;-74
2023/08/29 02:12:31;;;;;;;10.10;5.75;;;;;;;12.35;100.00;101179.53;5090017;28;20031;-74
2023/08/29 02:14:57;;;;;;;9.05;5.22;;;;;;;12.32;100.00;101166.56;5090104;28;20054;-74
2023/08/29 02:17:23;;;;;;;7.68;5.03;;;;;;;12.26;100.00;101174.34;5088627;28;20046;-74
2023/08/29 02:19:48;;;;;;;10.85;6.22;;;;;;;12.23;100.00;101174.72;5088497;28;20411;-74
2023/08/29 02:22:13;;;;;;;9.30;6.65;;;;;;;12.22;100.00;101181.09;5089663;28;20107;-73
2023/08/29 02:24:39;;;;;;;14.05;6.68;;;;;;;12.21;100.00;101184.81;5089850;28;20020;-73
2023/08/29 02:27:05;;;;;;;10.48;6.20;;;;;;;12.20;100.00;101185.81;5089945;28;20502;-74
2023/08/29 02:29:30;;;;;;;9.60;6.28;;;;;;;12.19;100.00;101186.84;5089612;28;20036;-74
2023/08/29 02:31:56;;;;;;;10.45;6.35;;;;;;;12.18;100.00;101187.91;5089991;28;20055;-74
2023/08/29 02:34:21;;;;;;;8.85;5.18;;;;;;;12.19;100.00;101202.09;5089586;28;20109;-73
2023/08/29 02:36:46;;;;;;;7.65;5.15;;;;;;;12.10;100.00;101204.06;5089659;28;20028;-73
2023/08/29 02:39:12;;;;;;;9.45;4.90;;;;;;;12.07;100.00;101213.31;5088571;28;20032;-74
2023/08/29 02:41:37;;;;;;;8.52;4.82;;;;;;;12.07;100.00;101215.16;5089614;28;20379;-74
2023/08/29 02:44:03;;;;;;;10.82;5.93;;;;;;;12.06;100.00;101208.19;5074222;28;20479;-73
2023/08/29 02:46:29;;;;;;;10.05;6.20;;;;;;;12.06;100.00;101217.03;5068688;28;20032;-73
2023/08/29 02:48:54;;;;;;;10.10;6.15;;;;;;;12.05;100.00;101212.72;5089347;28;20020;-73
2023/08/29 02:51:20;;;;;;;8.52;5.13;;;;;;;12.06;100.00;101213.53;5089305;28;20035;-73
2023/08/29 02:53:45;;;;;;;10.40;5.95;;;;;;;11.98;100.00;101201.16;5089498;28;20040;-73
2023/08/29 02:56:10;;;;;;;8.68;5.18;;;;;;;12.01;100.00;101202.59;5089127;28;20117;-73
2023/08/29 02:58:36;;;;;;;11.32;5.30;;;;;;;12.04;100.00;101213.72;5089197;28;20044;-73
2023/08/29 03:01:03;;;;;;;8.02;5.47;;;;;;;11.99;100.00;101221.50;5089130;28;20024;-74
2023/08/29 03:03:28;;;;;;;8.23;4.47;;;;;;;11.94;100.00;101226.59;5089104;28;20574;-73
2023/08/29 03:05:58;;;;;;;6.40;4.00;;;;;;;11.92;100.00;101220.66;5087768;28;20104;-73
2023/08/29 03:08:24;;;;;;;10.63;5.35;;;;;;;11.93;100.00;101224.97;5089146;28;20032;-73
2023/08/29 03:10:50;;;;;;;10.02;4.95;;;;;;;11.93;100.00;101232.16;5089129;28;20442;-73
2023/08/29 03:13:17;;;;;;;11.10;6.53;;;;;;;11.95;100.00;101232.81;5087904;28;20036;-73
2023/08/29 03:15:43;;;;;;;7.78;5.47;;;;;;;11.90;100.00;101224.56;5069681;28;20039;-73
2023/08/29 03:18:09;;;;;;;10.63;6.63;;;;;;;11.94;100.00;101207.91;5069857;28;20498;-73
2023/08/29 03:20:38;;;;;;;11.70;6.47;;;;;;;11.96;100.00;101213.88;5069420;28;20045;-73
2023/08/29 03:23:03;;;;;;;8.65;5.15;;;;;;;11.96;100.00;101205.88;5088530;28;20035;-73
2023/08/29 03:25:29;;;;;;;9.20;6.15;;;;;;;11.93;100.00;101208.13;5088708;28;20101;-74
2023/08/29 03:27:54;;;;;;;12.30;6.25;;;;;;;11.74;100.00;101178.38;5087623;28;20114;-73
2023/08/29 03:30:19;;;;;;;10.32;5.95;;;;;;;11.89;100.00;101188.94;5087191;28;20391;-74
2023/08/29 03:32:49;;;;;;;9.20;5.72;;;;;;;11.92;100.00;101185.06;5088904;28;20372;-73
2023/08/29 03:35:14;;;;;;;10.52;5.97;;;;;;;11.90;100.00;101190.63;5083905;28;20072;-74
2023/08/29 03:37:40;;;;;;;17.33;5.43;;;;;;;11.93;100.00;101195.56;5088942;28;20040;-73
2023/08/29 03:40:06;;;;;;;10.80;5.50;;;;;;;11.94;100.00;101181.16;5088706;28;20031;-74
2023/08/29 03:42:31;;;;;;;9.85;5.53;;;;;;;11.94;100.00;101181.16;5088716;28;20486;-73
2023/08/29 03:44:57;;;;;;;7.60;5.22;;;;;;;11.88;100.00;101176.63;5089093;28;20064;-73
2023/08/29 03:47:23;;;;;;;10.52;5.85;;;;;;;11.84;100.00;101176.16;5088631;28;20032;-74
2023/08/29 03:49:49;;;;;;;9.27;5.32;;;;;;;11.83;100.00;101168.34;5088657;28;20414;-73
2023/08/29 03:52:28;;;;;;;9.93;5.57;;;;;;;11.82;100.00;101167.53;5088639;28;20042;-73
2023/08/29 03:54:57;;;;;;;8.70;5.10;;;;;;;11.80;100.00;101164.22;5088652;28;20490;-73
2023/08/29 03:57:23;;;;;;;7.97;5.65;;;;;;;11.79;100.00;101151.06;5088532;28;20029;-73
2023/08/29 03:59:48;;;;;;;7.63;5.22;;;;;;;11.77;100.00;101158.44;5088622;28;20035;-73
2023/08/29 04:02:14;;;;;;;7.72;5.03;;;;;;;11.74;100.00;101159.66;5088586;28;20024;-73
2023/08/29 04:04:39;;;;;;;8.45;4.80;;;;;;;11.69;100.00;101159.44;5088463;28;20085;-73
2023/08/29 04:07:05;;;;;;;7.97;5.15;;;;;;;11.60;100.00;101144.56;5088358;28;20509;-73
2023/08/29 04:09:30;;;;;;;8.88;5.30;;;;;;;11.61;100.00;101147.03;5088257;28;20066;-73
2023/08/29 04:11:56;;;;;;;23.45;6.70;;;;;;;11.58;100.00;101139.44;5088467;28;20028;-73
2023/08/29 04:14:21;;;;;;;13.18;5.80;;;;;;;11.59;100.00;101141.06;5087223;28;20050;-73
2023/08/29 04:16:47;;;;;;;8.77;4.60;;;;;;;11.57;100.00;101134.28;5087061;28;20028;-73
2023/08/29 04:19:14;;;;;;;9.32;6.32;;;;;;;11.53;100.00;101127.69;5088161;28;20042;-73
2023/08/29 04:21:40;;;;;;;8.00;4.68;;;;;;;11.46;100.00;101135.66;5088451;28;20040;-73
2023/08/29 04:24:06;;;;;;;6.80;4.78;;;;;;;11.43;100.00;101138.72;5088066;28;20089;-73
2023/08/29 04:26:31;;;;;;;5.88;4.75;;;;;;;11.37;100.00;101124.28;5088234;28;20025;-73
2023/08/29 04:28:56;;;;;;;7.93;4.50;;;;;;;11.36;100.00;101127.97;5088180;28;20032;-74
2023/08/29 04:31:22;;;;;;;4.75;3.72;;;;;;;11.34;100.00;101124.69;5088028;28;20043;-74
2023/08/29 04:33:47;;;;;;;3.95;3.42;;;;;;;11.32;100.00;101128.56;5086970;28;20028;-73
2023/08/29 04:36:17;;;;;;;8.18;4.43;;;;;;;11.28;100.00;101136.13;5086895;28;20070;-73
2023/08/29 04:38:44;;;;;;;7.35;3.67;;;;;;;11.25;100.00;101133.84;5088200;28;20383;-74
2023/08/29 04:41:11;;;;;;;5.40;4.43;;;;;;;11.26;100.00;101130.16;5086783;28;20028;-73
2023/08/29 04:43:36;;;;;;;6.45;4.40;;;;;;;11.25;100.00;101115.16;5088232;28;20077;-73
2023/08/29 04:46:02;;;;;;;6.00;4.60;;;;;;;11.31;100.00;101124.25;5087762;28;20036;-73
2023/08/29 04:48:27;;;;;;;7.25;4.55;;;;;;;11.34;100.00;101130.03;5091772;28;20090;-73
2023/08/29 04:50:52;;;;;;;7.18;4.72;;;;;;;11.35;100.00;101129.00;5091463;28;20028;-74
2023/08/29 04:53:18;;;;;;;8.38;5.32;;;;;;;11.27;100.00;101115.81;5090637;28;20559;-73
2023/08/29 04:55:43;;;;;;;7.63;3.88;;;;;;;11.27;100.00;101123.00;5090512;28;20032;-74
2023/08/29 04:58:08;;;;;;;5.43;4.20;;;;;;;11.25;100.00;101122.34;5090441;28;20468;-74
2023/08/29 05:00:34;;;;;;;5.65;4.35;;;;;;;11.23;100.00;101130.53;5090469;28;20045;-74
2023/08/29 05:02:59;;;;;;;7.65;4.93;;;;;;;11.19;100.00;101123.97;5091355;28;20034;-74
2023/08/29 05:05:25;;;;;;;9.23;4.93;;;;;;;11.19;100.00;101135.47;5091578;28;20074;-74
2023/08/29 05:07:50;;;;;;;7.32;5.25;;;;;;;11.23;100.00;101133.22;5091331;28;20113;-74
2023/08/29 05:10:15;;;;;;;7.03;4.75;;;;;;;11.21;100.00;101134.44;5090594;28;20371;-74
2023/08/29 05:12:41;;;;;;;11.13;5.57;;;;;;;11.21;100.00;101135.25;5089628;28;20039;-74
2023/08/29 05:15:08;;;;;;;7.85;4.90;;;;;;;11.22;100.00;101136.09;5091558;28;20040;-74
2023/08/29 05:17:33;;;;;;;8.25;5.45;;;;;;;11.21;100.00;101140.59;5090008;28;20024;-74
2023/08/29 05:19:58;;;;;;;8.20;5.43;;;;;;;11.18;100.00;101136.47;5089925;28;20048;-74
2023/08/29 05:22:24;;;;;;;7.03;4.72;;;;;;;11.22;100.00;101139.59;5089601;28;20387;-74
2023/08/29 05:24:49;;;;;;;7.63;5.40;;;;;;;11.26;100.00;101132.00;5090124;28;20024;-74
2023/08/29 05:27:14;;;;;;;9.90;5.63;;;;;;;11.31;100.00;101137.59;5089911;28;20396;-74
2023/08/29 05:29:41;;;;;;;11.23;5.50;;;;;;;11.39;100.00;101137.44;5091277;28;20066;-74
2023/08/29 05:32:06;;;;;;;10.45;5.72;;;;;;;11.42;100.00;101137.03;5073237;28;20036;-74
2023/08/29 05:34:32;;;;;;;11.05;6.43;;;;;;;11.47;100.00;101141.81;5071740;28;20030;-74
2023/08/29 05:36:57;;;;;;;11.88;6.80;;;;;;;11.61;100.00;101146.22;5070387;28;20034;-74
2023/08/29 05:39:23;;;;;;;10.38;6.32;;;;;;;11.65;100.00;101150.13;5090866;28;20050;-74
2023/08/29 05:41:49;;;;;;;13.27;6.82;;;;;;;11.70;100.00;101142.38;5071470;28;20033;-74
2023/08/29 05:44:14;;;;;;;12.75;7.45;;;;;;;11.75;100.00;101150.63;5086898;28;20467;-74
2023/08/29 05:46:40;;;;;;;13.05;6.57;;;;;;;11.77;100.00;101156.59;5071665;28;20103;-73
2023/08/29 05:49:05;;;;;;;12.55;6.88;;;;;;;11.79;100.00;101151.88;5071388;28;20039;-74
2023/08/29 05:51:31;;;;;;;14.02;7.10;;;;;;;11.82;100.00;101154.16;5071209;28;20124;-74
2023/08/29 05:53:56;;;;;;;13.15;7.47;;;;;;;11.81;100.00;101157.00;5071477;28;20024;-74
2023/08/29 05:56:21;;;;;;;10.75;6.65;;;;;;;11.85;100.00;101156.44;5088758;28;20040;-74
2023/08/29 05:58:47;;;;;;;15.55;6.95;;;;;;;11.88;100.00;101157.91;5080530;28;20459;-74
2023/08/29 06:01:13;;;;;;;12.43;7.32;;;;;;;11.92;100.00;101166.34;5082381;28;20028;-74
2023/08/29 06:03:38;;;;;;;9.90;5.95;;;;;;;11.97;100.00;101161.25;5091217;28;20119;-74
2023/08/29 06:06:04;;;;;;;11.65;6.90;;;;;;;12.02;100.00;101154.28;5072608;28;20326;-74
2023/08/29 06:08:35;;;;;;;13.68;7.72;;;;;;;12.11;100.00;101152.28;5090742;28;20127;-74
2023/08/29 06:11:03;;;;;;;12.07;7.35;;;;;;;12.12;100.00;101147.75;5090150;28;20039;-74
2023/08/29 06:13:29;;;;;;;13.00;8.05;;;;;;;12.18;100.00;101149.59;5088962;28;20029;-74
2023/08/29 06:15:54;;;;;;;13.52;8.13;;;;;;;12.24;100.00;101143.47;5090199;28;20475;-74
2023/08/29 06:18:20;;;;;;;14.15;8.35;;;;;;;12.30;100.00;101142.66;5070955;28;20472;-74
2023/08/29 06:20:46;;;;;;;14.63;9.32;;;;;;;12.37;100.00;101150.72;5089959;28;20044;-74
2023/08/29 06:23:11;;;;;;;15.90;9.25;;;;;;;12.33;100.00;101133.41;5079278;28;20037;-74
2023/08/29 06:25:36;;;;;;;18.08;10.38;;;;;;;12.49;100.00;101151.78;5088264;28;20135;-73
2023/08/29 06:28:02;;;;;;;17.70;10.48;;;;;;;12.59;100.00;101146.84;5090145;28;20028;-73
2023/08/29 06:30:28;;;;;;;16.40;9.95;;;;;;;12.68;100.00;101152.84;5089899;28;20032;-73
2023/08/29 06:32:53;;;;;;;20.58;11.50;;;;;;;12.75;100.00;101150.19;5088723;28;20169;-73
2023/08/29 06:35:19;;;;;;;18.55;10.73;;;;;;;12.82;100.00;101146.50;5089986;28;20111;-73
2023/08/29 06:37:44;;;;;;;17.95;9.75;;;;;;;12.93;100.00;101155.78;5089938;28;20035;-75
2023/08/29 06:40:10;;;;;;;15.93;10.15;;;;;;;13.02;100.00;101149.19;5088751;28;20028;-75
2023/08/29 06:42:37;;;;;;;15.73;11.32;;;;;;;13.13;100.00;101148.56;5086184;28;20040;-75
2023/08/29 06:45:05;;;;;;;17.58;10.88;;;;;;;13.20;100.00;101148.56;5088382;28;20032;-71
2023/08/29 06:47:31;;;;;;;17.27;10.82;;;;;;;13.25;100.00;101143.41;5089665;28;20100;-74
2023/08/29 06:49:56;;;;;;;17.85;11.70;;;;;;;13.34;100.00;101144.06;5089476;28;20020;-74
2023/08/29 06:52:22;;;;;;;17.92;11.25;;;;;;;13.44;100.00;101149.81;5089567;28;20077;-74
2023/08/29 06:54:47;;;;;;;17.58;11.05;;;;;;;13.52;100.00;101144.25;5089664;28;20020;-74
2023/08/29 06:57:12;;;;;;;16.17;10.32;;;;;;;13.55;100.00;101153.72;5089450;28;20036;-74
2023/08/29 06:59:38;;;;;;;16.67;11.40;;;;;;;13.55;100.00;101141.16;5088191;28;20028;-74
2023/08/29 07:02:04;;;;;;;19.40;11.00;;;;;;;13.63;100.00;101145.47;5072612;28;20063;-74
2023/08/29 07:04:29;;;;;;;18.25;10.43;;;;;;;13.72;100.00;101138.81;5069748;28;20032;-74
2023/08/29 07:06:55;;;;;;;17.38;11.15;;;;;;;13.76;100.00;101141.94;5068660;28;20032;-74
2023/08/29 07:09:20;;;;;;;18.13;11.00;;;;;;;13.83;100.00;101140.03;5069209;28;20032;-74
2023/08/29 07:11:46;;;;;;;18.48;10.40;;;;;;;13.89;100.00;101139.22;5069889;28;20123;-75
2023/08/29 07:14:11;;;;;;;15.50;10.13;;;;;;;13.99;100.00;101138.75;5068573;28;20025;-74
2023/08/29 07:16:36;;;;;;;15.85;9.43;;;;;;;14.01;100.00;101132.13;5069709;28;20476;-74
2023/08/29 07:19:02;;;;;;;17.63;10.52;;;;;;;14.12;100.00;101141.41;5069652;28;20094;-74
2023/08/29 07:21:28;;;;;;;16.90;9.52;;;;;;;14.14;100.00;101144.66;5068158;28;20055;-74
2023/08/29 07:23:54;;;;;;;14.88;9.25;;;;;;;14.16;100.00;101136.41;5069552;28;20044;-74
2023/08/29 07:26:20;;;;;;;16.67;10.27;;;;;;;14.28;100.00;101139.22;5086468;28;20036;-74
2023/08/29 07:28:45;;;;;;;16.25;9.77;;;;;;;14.38;100.00;101142.28;5071354;28;20043;-68
2023/08/29 07:31:10;;;;;;;15.13;9.35;;;;;;;14.38;100.00;101129.72;5069382;28;20025;-69
2023/08/29 07:33:36;;;;;;;16.15;8.80;;;;;;;14.56;100.00;101146.97;5070145;28;20116;-70
2023/08/29 07:36:02;;;;;;;12.35;8.73;;;;;;;14.65;100.00;101145.69;5070525;28;20493;-73
2023/08/29 07:38:28;;;;;;;14.82;8.63;;;;;;;14.68;100.00;101138.00;5069174;28;20106;-74
2023/08/29 07:40:53;;;;;;;14.55;7.32;;;;;;;14.77;100.00;101137.75;5068957;28;20089;-72
2023/08/29 07:43:18;;;;;;;16.38;9.95;;;;;;;14.87;100.00;101148.81;5067366;28;20040;-72
2023/08/29 07:45:45;;;;;;;14.85;10.02;;;;;;;14.94;100.00;101148.78;5069182;28;20494;-71
2023/08/29 07:48:10;;;;;;;14.45;9.57;;;;;;;14.99;100.00;101149.78;5069036;28;20033;-71
2023/08/29 07:50:36;;;;;;;13.63;10.00;;;;;;;15.06;100.00;101153.25;5068518;28;20032;-71
2023/08/29 07:53:01;;;;;;;18.67;13.52;;;;;;;15.13;100.00;101153.19;5068528;28;20107;-71
2023/08/29 07:55:27;;;;;;;19.58;14.40;;;;;;;15.20;100.00;101158.50;5068997;28;20028;-71
2023/08/29 07:57:52;;;;;;;21.80;13.50;;;;;;;15.32;100.00;101162.09;5069020;28;20063;-71
2023/08/29 08:00:18;;;;;;;16.42;12.57;;;;;;;15.40;100.00;101156.44;5068733;28;20048;-71
2023/08/29 08:02:44;;;;;;;19.15;9.70;;;;;;;15.47;100.00;101153.69;5069108;28;20040;-71
2023/08/29 08:05:14;;;;;;;11.63;8.35;;;;;;;15.58;100.00;101152.97;5069527;28;20486;-71
2023/08/29 08:07:40;;;;;;;12.23;8.68;;;;;;;15.84;100.00;101149.19;5069403;28;20025;-71
2023/08/29 08:10:07;;;;;;;15.95;10.07;;;;;;;16.29;100.00;101166.88;5077828;28;20025;-71
2023/08/29 08:12:34;;;;;;;14.82;9.32;;;;;;;16.50;100.00;101170.94;5069287;28;20064;-71
2023/08/29 08:15:00;;;;;;;14.05;7.97;;;;;;;16.72;100.00;101164.03;5072321;28;20031;-71
2023/08/29 08:17:25;;;;;;;12.25;7.43;;;;;;;16.96;100.00;101172.19;5073729;28;20035;-71
2023/08/29 08:19:50;;;;;;;11.73;6.22;;;;;;;17.06;100.00;101167.06;5068650;28;20047;-71
2023/08/29 08:22:16;;;;;;;9.75;5.90;;;;;;;17.07;100.00;101174.09;5071869;28;20036;-71
2023/08/29 08:24:41;;;;;;;17.73;8.13;;;;;;;17.13;100.00;101175.03;5072987;28;20086;-71
2023/08/29 08:27:07;;;;;;;10.98;6.32;;;;;;;17.22;100.00;101173.66;5073098;28;20024;-71
2023/08/29 08:29:33;;;;;;;8.13;5.70;;;;;;;17.23;100.00;101177.97;5073184;28;20454;-71
2023/08/29 08:31:58;;;;;;;10.43;6.53;;;;;;;17.34;100.00;101182.53;5073011;28;20036;-71
2023/08/29 08:34:23;;;;;;;7.55;4.97;;;;;;;17.51;100.00;101180.81;5073008;28;20126;-71
2023/08/29 08:36:49;;;;;;;8.38;5.85;;;;;;;17.69;100.00;101177.16;5072637;28;20033;-71
2023/08/29 08:39:14;;;;;;;10.45;5.80;;;;;;;17.80;100.00;101172.03;5072678;28;20033;-71
2023/08/29 08:41:40;;;;;;;10.73;5.63;;;;;;;17.88;100.00;101177.06;5091752;28;20036;-71
2023/08/29 08:44:09;;;;;;;12.45;5.38;;;;;;;17.80;100.00;101170.16;5090862;28;20048;-71
2023/08/29 08:46:35;;;;;;;6.85;4.97;;;;;;;17.71;100.00;101179.59;5092196;28;20182;-71
2023/08/29 08:49:01;;;;;;;6.25;4.45;;;;;;;17.61;100.00;101171.31;5091938;28;20031;-71
2023/08/29 08:51:28;;;;;;;7.63;5.03;;;;;;;17.51;100.00;101175.41;5091868;28;20067;-71
2023/08/29 08:53:54;;;;;;;7.85;4.35;;;;;;;17.41;100.00;101175.16;5092147;28;20054;-71
2023/08/29 08:56:19;;;;;;;7.70;4.90;;;;;;;17.39;100.00;101173.75;5091900;28;20032;-71
2023/08/29 08:58:45;;;;;;;7.63;4.88;;;;;;;17.34;100.00;101171.75;5091943;28;20051;-71
2023/08/29 09:01:11;;;;;;;7.40;5.10;;;;;;;17.32;100.00;101168.50;5091582;28;20032;-71
2023/08/29 09:03:38;;;;;;;5.90;4.15;;;;;;;17.24;100.00;101172.38;5074359;28;20067;-71
2023/08/29 09:06:04;;;;;;;10.00;5.20;;;;;;;17.23;100.00;101164.50;5091405;28;20643;-71
2023/08/29 09:08:31;;;;;;;6.45;4.13;;;;;;;17.31;100.00;101167.66;5091677;28;20059;-71
2023/08/29 09:11:01;;;;;;;8.65;4.47;;;;;;;17.36;100.00;101168.84;5091537;28;20036;-71
2023/08/29 09:13:26;;;;;;;9.73;4.78;;;;;;;17.36;100.00;101166.97;5091228;28;20949;-71
2023/08/29 09:15:51;;;;;;;7.68;3.90;;;;;;;17.36;100.00;101175.06;5091338;28;20024;-71
2023/08/29 09:18:31;;;;;;;7.90;4.82;;;;;;;17.43;100.00;101173.06;5091333;28;20493;-71
2023/08/29 09:21:01;;;;;;;6.53;3.90;;;;;;;17.44;100.00;101180.09;5090552;28;20047;-71
2023/08/29 09:23:29;;;;;;;6.65;4.90;;;;;;;17.55;100.00;101172.25;5090599;28;20031;-71
2023/08/29 09:25:55;;;;;;;11.30;5.55;;;;;;;17.63;100.00;101170.03;5090538;28;20028;-71
2023/08/29 09:28:22;;;;;;;8.18;5.07;;;;;;;17.74;100.00;101171.88;5090290;28;20032;-71
2023/08/29 09:30:49;;;;;;;11.52;5.13;;;;;;;17.86;100.00;101171.88;5090022;28;20093;-71
2023/08/29 09:33:19;;;;;;;9.23;5.10;;;;;;;18.06;100.00;101176.91;5088588;28;20027;-71
2023/08/29 09:35:44;;;;;;;8.10;5.07;;;;;;;18.14;100.00;101167.59;5090668;28;20581;-71
2023/08/29 09:38:10;;;;;;;8.02;4.60;;;;;;;18.29;100.00;101181.41;5090758;28;20039;-71
2023/08/29 09:40:44;;;;;;;3.95;3.13;;;;;;;18.28;100.00;101176.25;5090768;28;20173;-71
2023/08/29 09:43:10;;;;;;;6.07;4.28;;;;;;;18.16;100.00;101168.19;5090735;28;20032;-71
2023/08/29 09:45:37;;;;;;;4.43;3.47;;;;;;;18.12;100.00;101169.72;5089541;28;20031;-71
2023/08/29 09:48:05;;;;;;;8.25;5.03;;;;;;;18.18;100.00;101171.44;5091042;28;20399;-71
2023/08/29 09:50:32;;;;;;;7.20;4.18;;;;;;;18.25;100.00;101168.63;5090754;28;20120;-71
2023/08/29 09:52:59;;;;;;;6.45;4.72;;;;;;;18.39;100.00;101154.63;5090739;28;20032;-71
2023/08/29 09:55:26;;;;;;;6.78;4.45;;;;;;;18.58;100.00;101157.13;5086011;28;20012;-71
2023/08/29 09:57:52;;;;;;;6.78;4.60;;;;;;;18.54;100.00;101150.53;5090112;28;20067;-71
2023/08/29 10:00:20;;;;;;;8.93;4.88;;;;;;;18.54;100.00;101170.28;5071210;28;20615;-74
2023/08/29 10:02:47;;;;;;;8.50;4.75;;;;;;;18.56;100.00;101157.34;5089667;28;20174;-71
2023/08/29 10:05:14;;;;;;;5.18;4.47;;;;;;;18.64;100.00;101152.63;5089917;28;20031;-71
2023/08/29 10:07:45;;;;;;;8.65;3.63;;;;;;;18.67;100.00;101150.25;5075754;28;20028;-72
2023/08/29 10:10:11;;;;;;;5.03;3.72;;;;;;;18.49;100.00;101153.97;5089949;28;20027;-71
2023/08/29 10:12:40;;;;;;;7.57;3.40;;;;;;;18.43;100.00;101149.53;5090247;28;20043;-71
2023/08/29 10:15:06;;;;;;;4.68;3.35;;;;;;;18.36;100.00;101152.38;5090304;28;20032;-72
2023/08/29 10:17:34;;;;;;;6.82;3.80;;;;;;;18.34;100.00;101156.41;5090228;28;20028;-71
2023/08/29 10:20:04;;;;;;;10.02;4.03;;;;;;;18.21;100.00;101140.47;5090096;28;20059;-71
2023/08/29 10:22:30;;;;;;;8.52;3.95;;;;;;;18.20;100.00;101139.66;5090270;28;20093;-71
2023/08/29 10:24:58;;;;;;;5.13;3.05;;;;;;;18.11;100.00;101150.00;5089364;28;20040;-71
2023/08/29 10:27:24;;;;;;;5.45;2.90;;;;;;;18.09;100.00;101140.50;5090225;28;20057;-71
2023/08/29 10:29:49;;;;;;;4.30;2.72;;;;;;;18.06;100.00;101144.50;5074988;28;20040;-69
2023/08/29 10:32:15;;;;;;;3.80;2.60;;;;;;;18.07;100.00;101145.31;5070547;28;20491;-73
2023/08/29 10:34:41;;;;;;;4.45;2.50;;;;;;;18.14;100.00;101146.00;5071238;28;20035;-74
2023/08/29 10:37:16;;;;;;;6.50;3.10;;;;;;;18.26;100.00;101137.84;5073460;28;20028;-73
2023/08/29 10:39:43;;;;;;;3.72;1.90;;;;;;;18.14;100.00;101137.91;5068928;28;20085;-69
2023/08/29 10:42:08;;;;;;;1.90;1.58;;;;;;;18.08;100.00;101141.59;5070101;28;20387;-74
2023/08/29 10:44:41;;;;;;;2.47;2.00;;;;;;;18.06;100.00;101135.59;5070791;28;20031;-72
2023/08/29 10:47:31;;;;;;;4.88;1.70;;;;;;;17.99;99.39;101137.59;5071289;28;20032;-76
2023/08/29 10:49:59;;;;;;;4.60;1.90;;;;;;;17.96;100.00;101145.13;5069647;28;20039;-74
2023/08/29 10:52:42;;;;;;;2.92;1.10;;;;;;;17.95;99.25;101137.28;5070438;28;20081;-74
2023/08/29 10:55:24;;;;;;;2.72;1.55;;;;;;;18.01;100.00;101132.78;5070100;28;20398;-74
2023/08/29 10:57:51;;;;;;;5.65;1.85;;;;;;;18.00;100.00;101131.13;5073473;28;20101;-73
2023/08/29 11:00:32;;;;;;;5.55;2.53;;;;;;;17.91;100.00;101125.31;5087616;28;20633;-73
2023/08/29 11:02:58;;;;;;;2.50;1.83;;;;;;;18.01;100.00;101120.13;5072960;28;20044;-75
2023/08/29 11:05:23;;;;;;;2.15;1.30;;;;;;;18.03;100.00;101115.31;5087142;28;20047;-75
2023/08/29 11:07:49;;;;;;;3.28;1.58;;;;;;;18.17;100.00;101121.22;5075373;28;20051;-71
2023/08/29 11:10:22;;;;;;;6.88;2.45;;;;;;;18.32;100.00;101118.00;5067905;28;20174;-74